sensor_id;sensor_type;location;lat;lon;timestamp;P1;durP1;ratioP1;P2;durP2;ratioP2
18194;SDS011;9223;50.988;3.162;2022-09-16T00:03:38;5.10;;;1.25;;
18194;SDS011;9223;50.988;3.162;2022-09-16T00:09:41;3.85;;;1.13;;
18194;SDS011;9223;50.988;3.162;2022-09-16T00:15:47;2.72;;;1.10;;
18194;SDS011;9223;50.988;3.162;2022-09-16T00:21:51;4.55;;;1.17;;
18194;SDS011;9223;50.988;3.162;2022-09-16T00:27:55;3.92;;;1.27;;
18194;SDS011;9223;50.988;3.162;2022-09-16T00:34:00;3.08;;;1.20;;
18194;SDS011;9223;50.988;3.162;2022-09-16T00:40:04;2.83;;;1.30;;
18194;SDS011;9223;50.988;3.162;2022-09-16T00:46:07;2.33;;;1.52;;
18194;SDS011;9223;50.988;3.162;2022-09-16T00:52:12;3.38;;;1.33;;
18194;SDS011;9223;50.988;3.162;2022-09-16T00:58:16;6.63;;;1.92;;
18194;SDS011;9223;50.988;3.162;2022-09-16T01:04:22;4.20;;;1.35;;
18194;SDS011;9223;50.988;3.162;2022-09-16T01:10:28;4.30;;;1.55;;
18194;SDS011;9223;50.988;3.162;2022-09-16T01:16:33;2.63;;;1.20;;
18194;SDS011;9223;50.988;3.162;2022-09-16T01:22:44;2.17;;;1.27;;
18194;SDS011;9223;50.988;3.162;2022-09-16T01:28:56;3.58;;;1.60;;
18194;SDS011;9223;50.988;3.162;2022-09-16T01:35:05;1.70;;;1.13;;
18194;SDS011;9223;50.988;3.162;2022-09-16T01:41:12;3.30;;;1.40;;
18194;SDS011;9223;50.988;3.162;2022-09-16T01:47:21;3.42;;;1.40;;
18194;SDS011;9223;50.988;3.162;2022-09-16T01:53:31;1.75;;;1.30;;
18194;SDS011;9223;50.988;3.162;2022-09-16T01:59:36;2.30;;;1.30;;
18194;SDS011;9223;50.988;3.162;2022-09-16T02:05:41;3.00;;;1.33;;
18194;SDS011;9223;50.988;3.162;2022-09-16T02:11:49;4.40;;;1.33;;
18194;SDS011;9223;50.988;3.162;2022-09-16T02:17:56;1.58;;;1.33;;
18194;SDS011;9223;50.988;3.162;2022-09-16T02:24:03;2.33;;;1.40;;
18194;SDS011;9223;50.988;3.162;2022-09-16T02:30:09;4.82;;;1.85;;
18194;SDS011;9223;50.988;3.162;2022-09-16T02:36:14;1.33;;;1.20;;
18194;SDS011;9223;50.988;3.162;2022-09-16T02:42:19;1.52;;;1.27;;
18194;SDS011;9223;50.988;3.162;2022-09-16T02:48:27;3.60;;;1.30;;
18194;SDS011;9223;50.988;3.162;2022-09-16T02:54:32;4.20;;;1.40;;
18194;SDS011;9223;50.988;3.162;2022-09-16T03:00:38;3.60;;;1.50;;
18194;SDS011;9223;50.988;3.162;2022-09-16T03:06:44;2.22;;;1.10;;
18194;SDS011;9223;50.988;3.162;2022-09-16T03:12:53;4.22;;;1.40;;
18194;SDS011;9223;50.988;3.162;2022-09-16T03:19:00;4.47;;;1.30;;
18194;SDS011;9223;50.988;3.162;2022-09-16T03:25:12;3.90;;;1.13;;
18194;SDS011;9223;50.988;3.162;2022-09-16T03:31:18;2.97;;;0.60;;
18194;SDS011;9223;50.988;3.162;2022-09-16T03:37:24;3.33;;;0.95;;
18194;SDS011;9223;50.988;3.162;2022-09-16T03:43:31;3.72;;;0.77;;
18194;SDS011;9223;50.988;3.162;2022-09-16T03:49:34;4.82;;;1.02;;
18194;SDS011;9223;50.988;3.162;2022-09-16T03:55:37;3.03;;;0.60;;
18194;SDS011;9223;50.988;3.162;2022-09-16T04:01:42;1.27;;;0.73;;
18194;SDS011;9223;50.988;3.162;2022-09-16T04:07:47;2.45;;;0.80;;
18194;SDS011;9223;50.988;3.162;2022-09-16T04:13:51;2.15;;;0.90;;
18194;SDS011;9223;50.988;3.162;2022-09-16T04:19:56;2.53;;;1.10;;
18194;SDS011;9223;50.988;3.162;2022-09-16T04:25:59;3.05;;;1.30;;
18194;SDS011;9223;50.988;3.162;2022-09-16T04:32:03;3.55;;;1.17;;
18194;SDS011;9223;50.988;3.162;2022-09-16T04:38:08;2.28;;;0.98;;
18194;SDS011;9223;50.988;3.162;2022-09-16T04:44:11;1.80;;;1.10;;
18194;SDS011;9223;50.988;3.162;2022-09-16T04:50:15;3.00;;;1.35;;
18194;SDS011;9223;50.988;3.162;2022-09-16T04:56:21;2.88;;;1.00;;
18194;SDS011;9223;50.988;3.162;2022-09-16T05:02:25;3.70;;;1.15;;
18194;SDS011;9223;50.988;3.162;2022-09-16T05:08:29;3.00;;;1.13;;
18194;SDS011;9223;50.988;3.162;2022-09-16T05:14:36;1.65;;;0.90;;
18194;SDS011;9223;50.988;3.162;2022-09-16T05:20:40;2.30;;;0.80;;
18194;SDS011;9223;50.988;3.162;2022-09-16T05:26:43;4.45;;;1.00;;
18194;SDS011;9223;50.988;3.162;2022-09-16T05:32:48;3.67;;;0.90;;
18194;SDS011;9223;50.988;3.162;2022-09-16T05:38:55;2.10;;;1.02;;
18194;SDS011;9223;50.988;3.162;2022-09-16T05:45:18;1.30;;;0.90;;
18194;SDS011;9223;50.988;3.162;2022-09-16T05:51:29;2.35;;;0.90;;
18194;SDS011;9223;50.988;3.162;2022-09-16T05:57:33;4.13;;;1.10;;
18194;SDS011;9223;50.988;3.162;2022-09-16T06:03:37;2.58;;;0.85;;
18194;SDS011;9223;50.988;3.162;2022-09-16T06:09:42;3.70;;;0.90;;
18194;SDS011;9223;50.988;3.162;2022-09-16T06:15:47;1.27;;;0.50;;
18194;SDS011;9223;50.988;3.162;2022-09-16T06:21:51;3.72;;;1.10;;
18194;SDS011;9223;50.988;3.162;2022-09-16T06:27:56;3.80;;;0.73;;
18194;SDS011;9223;50.988;3.162;2022-09-16T06:33:59;4.45;;;1.02;;
18194;SDS011;9223;50.988;3.162;2022-09-16T06:40:04;1.95;;;0.73;;
18194;SDS011;9223;50.988;3.162;2022-09-16T06:46:09;1.60;;;0.50;;
18194;SDS011;9223;50.988;3.162;2022-09-16T06:52:16;2.17;;;0.70;;
18194;SDS011;9223;50.988;3.162;2022-09-16T06:58:20;3.58;;;1.42;;
18194;SDS011;9223;50.988;3.162;2022-09-16T07:04:25;4.70;;;0.82;;
18194;SDS011;9223;50.988;3.162;2022-09-16T07:10:28;4.22;;;0.70;;
18194;SDS011;9223;50.988;3.162;2022-09-16T07:16:32;0.55;;;0.50;;
18194;SDS011;9223;50.988;3.162;2022-09-16T07:22:37;2.70;;;0.50;;
18194;SDS011;9223;50.988;3.162;2022-09-16T07:28:43;3.13;;;0.80;;
18194;SDS011;9223;50.988;3.162;2022-09-16T07:34:47;2.72;;;0.73;;
18194;SDS011;9223;50.988;3.162;2022-09-16T07:40:52;1.85;;;0.57;;
18194;SDS011;9223;50.988;3.162;2022-09-16T07:46:56;5.50;;;1.08;;
18194;SDS011;9223;50.988;3.162;2022-09-16T07:52:59;2.85;;;0.65;;
18194;SDS011;9223;50.988;3.162;2022-09-16T07:59:05;1.88;;;0.50;;
18194;SDS011;9223;50.988;3.162;2022-09-16T08:05:12;2.03;;;0.57;;
18194;SDS011;9223;50.988;3.162;2022-09-16T08:11:16;1.45;;;0.52;;
18194;SDS011;9223;50.988;3.162;2022-09-16T08:17:21;0.70;;;0.40;;
18194;SDS011;9223;50.988;3.162;2022-09-16T08:23:24;1.98;;;0.60;;
18194;SDS011;9223;50.988;3.162;2022-09-16T08:29:28;2.40;;;0.65;;
18194;SDS011;9223;50.988;3.162;2022-09-16T08:35:32;1.08;;;0.50;;
18194;SDS011;9223;50.988;3.162;2022-09-16T08:41:52;3.45;;;0.65;;
18194;SDS011;9223;50.988;3.162;2022-09-16T08:48:06;4.93;;;0.63;;
18194;SDS011;9223;50.988;3.162;2022-09-16T08:54:22;1.50;;;0.95;;
18194;SDS011;9223;50.988;3.162;2022-09-16T09:00:27;1.15;;;0.43;;
18194;SDS011;9223;50.988;3.162;2022-09-16T09:06:37;1.73;;;0.65;;
18194;SDS011;9223;50.988;3.162;2022-09-16T09:12:46;3.20;;;0.70;;
18194;SDS011;9223;50.988;3.162;2022-09-16T09:18:57;2.92;;;0.70;;
18194;SDS011;9223;50.988;3.162;2022-09-16T09:31:24;8.68;;;1.27;;
18194;SDS011;9223;50.988;3.162;2022-09-16T09:37:35;2.25;;;0.70;;
18194;SDS011;9223;50.988;3.162;2022-09-16T09:43:42;2.53;;;0.60;;
18194;SDS011;9223;50.988;3.162;2022-09-16T09:49:50;2.30;;;0.80;;
18194;SDS011;9223;50.988;3.162;2022-09-16T09:55:56;3.80;;;0.82;;
18194;SDS011;9223;50.988;3.162;2022-09-16T10:02:01;8.57;;;1.00;;
18194;SDS011;9223;50.988;3.162;2022-09-16T10:08:10;2.10;;;0.60;;
18194;SDS011;9223;50.988;3.162;2022-09-16T10:14:24;3.03;;;0.70;;
18194;SDS011;9223;50.988;3.162;2022-09-16T10:20:28;1.52;;;0.63;;
18194;SDS011;9223;50.988;3.162;2022-09-16T10:26:38;3.58;;;0.70;;
18194;SDS011;9223;50.988;3.162;2022-09-16T10:32:46;3.38;;;0.60;;
18194;SDS011;9223;50.988;3.162;2022-09-16T10:38:51;1.83;;;0.80;;
18194;SDS011;9223;50.988;3.162;2022-09-16T10:44:58;3.33;;;0.70;;
18194;SDS011;9223;50.988;3.162;2022-09-16T10:51:05;3.30;;;1.23;;
18194;SDS011;9223;50.988;3.162;2022-09-16T10:57:22;2.03;;;0.68;;
18194;SDS011;9223;50.988;3.162;2022-09-16T11:03:40;1.30;;;0.60;;
18194;SDS011;9223;50.988;3.162;2022-09-16T11:09:49;1.75;;;0.47;;
18194;SDS011;9223;50.988;3.162;2022-09-16T11:15:58;2.22;;;0.60;;
18194;SDS011;9223;50.988;3.162;2022-09-16T11:22:10;2.65;;;0.50;;
18194;SDS011;9223;50.988;3.162;2022-09-16T11:28:20;2.67;;;0.60;;
18194;SDS011;9223;50.988;3.162;2022-09-16T11:34:36;3.72;;;0.70;;
18194;SDS011;9223;50.988;3.162;2022-09-16T11:40:50;4.15;;;0.50;;
18194;SDS011;9223;50.988;3.162;2022-09-16T11:46:59;1.30;;;0.50;;
18194;SDS011;9223;50.988;3.162;2022-09-16T11:59:40;3.70;;;0.50;;
18194;SDS011;9223;50.988;3.162;2022-09-16T12:05:48;5.22;;;0.85;;
18194;SDS011;9223;50.988;3.162;2022-09-16T12:11:55;4.60;;;1.13;;
18194;SDS011;9223;50.988;3.162;2022-09-16T12:18:07;2.75;;;0.50;;
18194;SDS011;9223;50.988;3.162;2022-09-16T12:24:13;2.63;;;0.40;;
18194;SDS011;9223;50.988;3.162;2022-09-16T12:30:19;0.75;;;0.68;;
18194;SDS011;9223;50.988;3.162;2022-09-16T12:36:26;3.78;;;0.85;;
18194;SDS011;9223;50.988;3.162;2022-09-16T12:49:02;2.53;;;0.63;;
18194;SDS011;9223;50.988;3.162;2022-09-16T12:55:22;4.55;;;0.63;;
18194;SDS011;9223;50.988;3.162;2022-09-16T13:01:30;1.65;;;0.60;;
18194;SDS011;9223;50.988;3.162;2022-09-16T13:07:37;1.88;;;0.68;;
18194;SDS011;9223;50.988;3.162;2022-09-16T13:13:45;2.58;;;0.47;;
18194;SDS011;9223;50.988;3.162;2022-09-16T13:19:49;3.17;;;0.65;;
18194;SDS011;9223;50.988;3.162;2022-09-16T13:25:55;3.45;;;0.57;;
18194;SDS011;9223;50.988;3.162;2022-09-16T13:32:01;2.25;;;0.50;;
18194;SDS011;9223;50.988;3.162;2022-09-16T13:38:19;2.88;;;0.52;;
18194;SDS011;9223;50.988;3.162;2022-09-16T13:44:27;2.05;;;0.60;;
18194;SDS011;9223;50.988;3.162;2022-09-16T13:50:33;1.77;;;0.50;;
18194;SDS011;9223;50.988;3.162;2022-09-16T13:56:42;2.63;;;0.80;;
18194;SDS011;9223;50.988;3.162;2022-09-16T14:09:14;2.40;;;0.40;;
18194;SDS011;9223;50.988;3.162;2022-09-16T14:15:20;1.55;;;0.32;;
18194;SDS011;9223;50.988;3.162;2022-09-16T14:21:23;3.88;;;0.70;;
18194;SDS011;9223;50.988;3.162;2022-09-16T14:27:29;3.70;;;0.43;;
18194;SDS011;9223;50.988;3.162;2022-09-16T14:33:34;3.97;;;0.50;;
18194;SDS011;9223;50.988;3.162;2022-09-16T14:39:38;3.17;;;0.60;;
18194;SDS011;9223;50.988;3.162;2022-09-16T14:45:45;2.03;;;0.40;;
18194;SDS011;9223;50.988;3.162;2022-09-16T14:51:55;4.28;;;0.68;;
18194;SDS011;9223;50.988;3.162;2022-09-16T14:57:59;0.45;;;0.30;;
18194;SDS011;9223;50.988;3.162;2022-09-16T15:04:06;2.03;;;0.40;;
18194;SDS011;9223;50.988;3.162;2022-09-16T15:10:13;1.95;;;0.70;;
18194;SDS011;9223;50.988;3.162;2022-09-16T15:16:22;1.85;;;0.40;;
18194;SDS011;9223;50.988;3.162;2022-09-16T15:22:30;2.13;;;0.60;;
18194;SDS011;9223;50.988;3.162;2022-09-16T15:28:34;3.97;;;0.70;;
18194;SDS011;9223;50.988;3.162;2022-09-16T15:34:37;6.30;;;0.50;;
18194;SDS011;9223;50.988;3.162;2022-09-16T15:40:45;2.55;;;0.32;;
18194;SDS011;9223;50.988;3.162;2022-09-16T15:46:48;2.83;;;0.60;;
18194;SDS011;9223;50.988;3.162;2022-09-16T15:52:53;1.50;;;0.40;;
18194;SDS011;9223;50.988;3.162;2022-09-16T15:59:02;1.02;;;0.45;;
18194;SDS011;9223;50.988;3.162;2022-09-16T16:05:08;4.35;;;0.50;;
18194;SDS011;9223;50.988;3.162;2022-09-16T16:11:13;2.08;;;0.40;;
18194;SDS011;9223;50.988;3.162;2022-09-16T16:17:18;3.28;;;0.63;;
18194;SDS011;9223;50.988;3.162;2022-09-16T16:23:22;7.93;;;1.02;;
18194;SDS011;9223;50.988;3.162;2022-09-16T16:29:25;2.63;;;0.52;;
18194;SDS011;9223;50.988;3.162;2022-09-16T16:35:30;1.83;;;0.60;;
18194;SDS011;9223;50.988;3.162;2022-09-16T16:41:34;4.45;;;0.70;;
18194;SDS011;9223;50.988;3.162;2022-09-16T16:47:37;1.17;;;0.45;;
18194;SDS011;9223;50.988;3.162;2022-09-16T16:53:45;1.40;;;0.40;;
18194;SDS011;9223;50.988;3.162;2022-09-16T16:59:49;3.28;;;0.65;;
18194;SDS011;9223;50.988;3.162;2022-09-16T17:05:53;2.13;;;0.55;;
18194;SDS011;9223;50.988;3.162;2022-09-16T17:12:01;3.17;;;0.80;;
18194;SDS011;9223;50.988;3.162;2022-09-16T17:18:05;2.30;;;0.70;;
18194;SDS011;9223;50.988;3.162;2022-09-16T17:24:08;4.63;;;1.02;;
18194;SDS011;9223;50.988;3.162;2022-09-16T17:30:13;2.80;;;0.80;;
18194;SDS011;9223;50.988;3.162;2022-09-16T17:36:17;1.98;;;0.80;;
18194;SDS011;9223;50.988;3.162;2022-09-16T17:42:22;2.78;;;0.63;;
18194;SDS011;9223;50.988;3.162;2022-09-16T17:48:27;3.10;;;0.70;;
18194;SDS011;9223;50.988;3.162;2022-09-16T17:54:31;2.72;;;0.70;;
18194;SDS011;9223;50.988;3.162;2022-09-16T18:00:35;2.50;;;0.50;;
18194;SDS011;9223;50.988;3.162;2022-09-16T18:06:41;3.10;;;0.43;;
18194;SDS011;9223;50.988;3.162;2022-09-16T18:12:44;3.00;;;0.77;;
18194;SDS011;9223;50.988;3.162;2022-09-16T18:18:48;1.98;;;0.55;;
18194;SDS011;9223;50.988;3.162;2022-09-16T18:24:53;3.42;;;0.75;;
18194;SDS011;9223;50.988;3.162;2022-09-16T18:31:00;3.08;;;0.63;;
18194;SDS011;9223;50.988;3.162;2022-09-16T18:37:04;4.35;;;1.20;;
18194;SDS011;9223;50.988;3.162;2022-09-16T18:43:09;4.38;;;1.13;;
18194;SDS011;9223;50.988;3.162;2022-09-16T18:49:13;6.57;;;0.90;;
18194;SDS011;9223;50.988;3.162;2022-09-16T18:55:17;6.75;;;1.00;;
18194;SDS011;9223;50.988;3.162;2022-09-16T19:01:23;4.28;;;1.00;;
18194;SDS011;9223;50.988;3.162;2022-09-16T19:07:27;3.35;;;1.20;;
18194;SDS011;9223;50.988;3.162;2022-09-16T19:13:31;6.40;;;1.20;;
18194;SDS011;9223;50.988;3.162;2022-09-16T19:19:36;4.22;;;0.82;;
18194;SDS011;9223;50.988;3.162;2022-09-16T19:25:40;3.17;;;0.80;;
18194;SDS011;9223;50.988;3.162;2022-09-16T19:31:45;3.17;;;0.68;;
18194;SDS011;9223;50.988;3.162;2022-09-16T19:37:50;2.10;;;0.73;;
18194;SDS011;9223;50.988;3.162;2022-09-16T19:43:54;6.82;;;0.85;;
18194;SDS011;9223;50.988;3.162;2022-09-16T19:49:58;1.83;;;0.40;;
18194;SDS011;9223;50.988;3.162;2022-09-16T19:56:05;2.38;;;0.55;;
18194;SDS011;9223;50.988;3.162;2022-09-16T20:02:08;1.90;;;0.50;;
18194;SDS011;9223;50.988;3.162;2022-09-16T20:08:12;3.25;;;0.50;;
18194;SDS011;9223;50.988;3.162;2022-09-16T20:14:17;3.40;;;0.60;;
18194;SDS011;9223;50.988;3.162;2022-09-16T20:20:21;2.85;;;0.52;;
18194;SDS011;9223;50.988;3.162;2022-09-16T20:26:24;7.07;;;0.70;;
18194;SDS011;9223;50.988;3.162;2022-09-16T20:32:29;4.50;;;2.05;;
18194;SDS011;9223;50.988;3.162;2022-09-16T20:38:34;2.50;;;0.77;;
18194;SDS011;9223;50.988;3.162;2022-09-16T20:44:37;5.10;;;1.13;;
18194;SDS011;9223;50.988;3.162;2022-09-16T20:50:42;9.52;;;1.55;;
18194;SDS011;9223;50.988;3.162;2022-09-16T20:56:46;8.60;;;2.13;;
18194;SDS011;9223;50.988;3.162;2022-09-16T21:02:51;5.13;;;0.75;;
18194;SDS011;9223;50.988;3.162;2022-09-16T21:08:58;4.22;;;0.50;;
18194;SDS011;9223;50.988;3.162;2022-09-16T21:15:02;4.88;;;0.73;;
18194;SDS011;9223;50.988;3.162;2022-09-16T21:21:07;2.33;;;0.40;;
18194;SDS011;9223;50.988;3.162;2022-09-16T21:27:12;3.67;;;0.65;;
18194;SDS011;9223;50.988;3.162;2022-09-16T21:33:15;2.75;;;0.50;;
18194;SDS011;9223;50.988;3.162;2022-09-16T21:39:19;3.47;;;0.50;;
18194;SDS011;9223;50.988;3.162;2022-09-16T21:45:24;2.42;;;0.60;;
18194;SDS011;9223;50.988;3.162;2022-09-16T21:51:28;2.53;;;0.32;;
18194;SDS011;9223;50.988;3.162;2022-09-16T21:57:35;2.63;;;0.45;;
18194;SDS011;9223;50.988;3.162;2022-09-16T22:03:41;3.47;;;0.63;;
18194;SDS011;9223;50.988;3.162;2022-09-16T22:09:44;3.78;;;0.70;;
18194;SDS011;9223;50.988;3.162;2022-09-16T22:15:48;2.17;;;0.40;;
18194;SDS011;9223;50.988;3.162;2022-09-16T22:21:53;4.80;;;0.60;;
18194;SDS011;9223;50.988;3.162;2022-09-16T22:27:56;2.08;;;0.50;;
18194;SDS011;9223;50.988;3.162;2022-09-16T22:34:00;1.98;;;0.47;;
18194;SDS011;9223;50.988;3.162;2022-09-16T22:40:05;3.08;;;1.00;;
18194;SDS011;9223;50.988;3.162;2022-09-16T22:46:11;6.45;;;1.45;;
18194;SDS011;9223;50.988;3.162;2022-09-16T22:52:14;4.00;;;0.60;;
18194;SDS011;9223;50.988;3.162;2022-09-16T22:58:19;5.10;;;1.42;;
18194;SDS011;9223;50.988;3.162;2022-09-16T23:04:22;2.85;;;1.10;;
18194;SDS011;9223;50.988;3.162;2022-09-16T23:10:27;3.05;;;0.70;;
18194;SDS011;9223;50.988;3.162;2022-09-16T23:16:33;3.83;;;0.82;;
18194;SDS011;9223;50.988;3.162;2022-09-16T23:22:37;3.13;;;0.82;;
18194;SDS011;9223;50.988;3.162;2022-09-16T23:28:41;3.55;;;0.52;;
18194;SDS011;9223;50.988;3.162;2022-09-16T23:34:46;1.98;;;0.60;;
18194;SDS011;9223;50.988;3.162;2022-09-16T23:40:49;2.88;;;0.63;;
18194;SDS011;9223;50.988;3.162;2022-09-16T23:46:52;3.45;;;1.00;;
18194;SDS011;9223;50.988;3.162;2022-09-16T23:52:58;5.65;;;1.23;;
18194;SDS011;9223;50.988;3.162;2022-09-16T23:59:01;7.72;;;1.63;;
